createdAt,value
2022-09-22T00:05:44.029Z,2.50
2022-09-22T00:20:44.752Z,2.70
2022-09-22T00:35:46.659Z,2.50
2022-09-22T00:50:47.391Z,2.80
2022-09-22T01:05:49.064Z,2.90
2022-09-22T01:20:49.934Z,2.80
2022-09-22T01:35:53.142Z,2.90
2022-09-22T01:50:54.022Z,2.80
2022-09-22T02:05:54.497Z,2.80
2022-09-22T02:20:55.373Z,3.10
2022-09-22T02:35:55.383Z,2.90
2022-09-22T02:50:56.925Z,2.70
2022-09-22T03:05:58.747Z,2.70
2022-09-22T03:20:58.894Z,2.80
2022-09-22T03:36:00.803Z,3.50
2022-09-22T03:51:01.672Z,3.00
2022-09-22T04:06:03.541Z,3.30
2022-09-22T04:21:03.158Z,2.80
2022-09-22T04:36:05.364Z,2.60
2022-09-22T04:51:06.679Z,3.50
2022-09-22T05:06:08.177Z,2.90
2022-09-22T05:21:08.317Z,3.70
2022-09-22T05:36:09.797Z,4.50
2022-09-22T05:51:10.341Z,5.30
2022-09-22T06:06:11.707Z,5.10
2022-09-22T06:21:13.412Z,5.50
2022-09-22T06:36:15.251Z,4.20
2022-09-22T06:51:16.444Z,3.30
2022-09-22T07:06:20.235Z,2.50
2022-09-22T07:21:21.125Z,2.90
2022-09-22T07:36:21.806Z,2.50
2022-09-22T07:51:23.408Z,1.90
2022-09-22T08:06:25.389Z,1.70
2022-09-22T08:21:26.459Z,2.00
2022-09-22T08:36:29.978Z,2.10
2022-09-22T08:51:31.334Z,1.70
2022-09-22T09:06:36.121Z,1.50
2022-09-22T09:21:37.336Z,1.00
2022-09-22T09:36:39.775Z,1.00
2022-09-22T09:51:42.317Z,0.80
2022-09-22T10:06:43.234Z,0.70
2022-09-22T10:21:43.554Z,0.70
2022-09-22T10:36:44.204Z,2.50
2022-09-22T10:51:45.602Z,0.70
2022-09-22T11:06:46.891Z,0.70
2022-09-22T11:21:48.272Z,0.60
2022-09-22T11:36:52.019Z,0.60
2022-09-22T11:51:52.870Z,0.70
2022-09-22T12:06:54.659Z,0.70
2022-09-22T12:21:54.698Z,0.70
2022-09-22T12:37:10.418Z,0.60
2022-09-22T12:52:11.671Z,0.60
2022-09-22T13:07:13.278Z,0.70
2022-09-22T13:22:15.028Z,0.60
2022-09-22T13:37:16.247Z,1.80
2022-09-22T13:52:17.492Z,0.60
2022-09-22T14:07:20.565Z,0.60
2022-09-22T14:22:20.920Z,0.90
2022-09-22T14:37:21.582Z,0.50
2022-09-22T14:52:21.765Z,0.70
2022-09-22T15:07:22.834Z,2.40
2022-09-22T15:22:22.956Z,1.30
2022-09-22T15:37:23.206Z,1.00
2022-09-22T15:52:23.506Z,1.00
2022-09-22T16:07:25.399Z,1.00
2022-09-22T16:22:25.497Z,0.90
2022-09-22T16:37:27.529Z,1.00
2022-09-22T16:52:29.766Z,1.30
2022-09-22T17:07:31.107Z,1.70
2022-09-22T17:22:31.308Z,2.70
2022-09-22T17:37:33.184Z,3.70
2022-09-22T17:52:36.036Z,3.70
2022-09-22T18:07:37.740Z,5.30
2022-09-22T18:22:37.320Z,13.70
2022-09-22T18:37:38.405Z,17.00
2022-09-22T18:52:39.780Z,14.90
2022-09-22T19:07:43.011Z,19.20
2022-09-22T19:22:44.311Z,17.00
2022-09-22T19:37:46.162Z,18.70
2022-09-22T19:52:45.881Z,16.80
2022-09-22T20:07:47.472Z,18.20
2022-09-22T20:22:48.149Z,16.80
2022-09-22T20:37:50.516Z,19.20
2022-09-22T20:52:53.412Z,25.20
2022-09-22T21:07:53.513Z,27.90
2022-09-22T21:22:55.201Z,25.80
2022-09-22T21:37:55.162Z,26.70
2022-09-22T21:52:57.034Z,28.70
2022-09-22T22:07:59.389Z,27.70
2022-09-22T22:23:00.381Z,28.30
2022-09-22T22:38:01.303Z,25.30
2022-09-22T22:53:01.915Z,21.90
2022-09-22T23:08:03.778Z,20.40
2022-09-22T23:23:04.446Z,18.70
2022-09-22T23:38:09.042Z,14.90
2022-09-22T23:53:09.592Z,14.30
